sensor_id;sensor_type;location;lat;lon;timestamp;temperature;humidity
21169;DHT22;10742;51.816;8.662;2023-12-14T00:01:23;11.00;99.90
21169;DHT22;10742;51.816;8.662;2023-12-14T00:04:44;11.00;99.90
21169;DHT22;10742;51.816;8.662;2023-12-14T00:08:05;11.00;99.90
21169;DHT22;10742;51.816;8.662;2023-12-14T00:11:26;11.00;99.90
21169;DHT22;10742;51.816;8.662;2023-12-14T00:14:47;11.00;99.90
21169;DHT22;10742;51.816;8.662;2023-12-14T00:18:08;11.00;99.90
21169;DHT22;10742;51.816;8.662;2023-12-14T00:21:29;11.00;99.90
21169;DHT22;10742;51.816;8.662;2023-12-14T00:24:50;10.90;99.90
21169;DHT22;10742;51.816;8.662;2023-12-14T00:28:11;10.90;99.90
21169;DHT22;10742;51.816;8.662;2023-12-14T00:31:32;10.90;99.90
21169;DHT22;10742;51.816;8.662;2023-12-14T00:34:54;10.80;99.90
21169;DHT22;10742;51.816;8.662;2023-12-14T00:38:15;10.80;99.90
21169;DHT22;10742;51.816;8.662;2023-12-14T00:41:36;10.80;99.90
21169;DHT22;10742;51.816;8.662;2023-12-14T00:44:57;10.70;99.90
21169;DHT22;10742;51.816;8.662;2023-12-14T00:48:18;10.60;99.90
21169;DHT22;10742;51.816;8.662;2023-12-14T00:51:39;10.60;99.90
21169;DHT22;10742;51.816;8.662;2023-12-14T00:55:01;10.60;99.90
21169;DHT22;10742;51.816;8.662;2023-12-14T00:58:22;10.60;99.90
21169;DHT22;10742;51.816;8.662;2023-12-14T01:01:43;10.50;99.90
21169;DHT22;10742;51.816;8.662;2023-12-14T01:05:05;10.50;99.90
21169;DHT22;10742;51.816;8.662;2023-12-14T01:08:27;10.50;99.90
21169;DHT22;10742;51.816;8.662;2023-12-14T01:11:47;10.50;99.90
21169;DHT22;10742;51.816;8.662;2023-12-14T01:15:09;10.50;99.90
21169;DHT22;10742;51.816;8.662;2023-12-14T01:18:30;10.50;99.90
21169;DHT22;10742;51.816;8.662;2023-12-14T01:21:52;10.50;99.90
21169;DHT22;10742;51.816;8.662;2023-12-14T01:25:13;10.40;99.90
21169;DHT22;10742;51.816;8.662;2023-12-14T01:28:34;10.40;99.90
21169;DHT22;10742;51.816;8.662;2023-12-14T01:31:55;10.40;99.90
21169;DHT22;10742;51.816;8.662;2023-12-14T01:35:16;10.30;99.90
21169;DHT22;10742;51.816;8.662;2023-12-14T01:38:37;10.30;99.90
21169;DHT22;10742;51.816;8.662;2023-12-14T01:41:59;10.30;99.90
21169;DHT22;10742;51.816;8.662;2023-12-14T01:45:20;10.20;99.90
21169;DHT22;10742;51.816;8.662;2023-12-14T01:48:41;10.30;99.90
21169;DHT22;10742;51.816;8.662;2023-12-14T01:52:02;10.20;99.90
21169;DHT22;10742;51.816;8.662;2023-12-14T01:55:23;10.20;99.90
21169;DHT22;10742;51.816;8.662;2023-12-14T01:58:44;10.10;99.90
21169;DHT22;10742;51.816;8.662;2023-12-14T02:02:06;10.10;99.90
21169;DHT22;10742;51.816;8.662;2023-12-14T02:05:28;10.10;99.90
21169;DHT22;10742;51.816;8.662;2023-12-14T02:08:49;10.00;99.90
21169;DHT22;10742;51.816;8.662;2023-12-14T02:12:10;10.00;99.90
21169;DHT22;10742;51.816;8.662;2023-12-14T02:15:31;10.00;99.90
21169;DHT22;10742;51.816;8.662;2023-12-14T02:18:52;9.90;99.90
21169;DHT22;10742;51.816;8.662;2023-12-14T02:22:13;9.90;99.90
21169;DHT22;10742;51.816;8.662;2023-12-14T02:25:34;9.90;99.90
21169;DHT22;10742;51.816;8.662;2023-12-14T02:28:55;9.90;99.90
21169;DHT22;10742;51.816;8.662;2023-12-14T02:32:16;9.90;99.90
21169;DHT22;10742;51.816;8.662;2023-12-14T02:35:37;9.90;99.90
21169;DHT22;10742;51.816;8.662;2023-12-14T02:38:58;9.80;99.90
21169;DHT22;10742;51.816;8.662;2023-12-14T02:42:20;9.90;99.90
21169;DHT22;10742;51.816;8.662;2023-12-14T02:45:41;9.80;99.90
21169;DHT22;10742;51.816;8.662;2023-12-14T02:49:02;9.80;99.90
21169;DHT22;10742;51.816;8.662;2023-12-14T02:52:24;9.80;99.90
21169;DHT22;10742;51.816;8.662;2023-12-14T02:55:45;9.80;99.90
21169;DHT22;10742;51.816;8.662;2023-12-14T02:59:06;9.80;99.90
21169;DHT22;10742;51.816;8.662;2023-12-14T03:02:27;9.80;99.90
21169;DHT22;10742;51.816;8.662;2023-12-14T03:05:48;9.80;99.90
21169;DHT22;10742;51.816;8.662;2023-12-14T03:09:12;9.70;99.90
21169;DHT22;10742;51.816;8.662;2023-12-14T03:12:33;9.70;99.90
21169;DHT22;10742;51.816;8.662;2023-12-14T03:15:54;9.70;99.90
21169;DHT22;10742;51.816;8.662;2023-12-14T03:19:15;9.70;99.90
21169;DHT22;10742;51.816;8.662;2023-12-14T03:22:39;9.70;99.90
21169;DHT22;10742;51.816;8.662;2023-12-14T03:26:01;9.70;99.90
21169;DHT22;10742;51.816;8.662;2023-12-14T03:29:23;9.70;99.90
21169;DHT22;10742;51.816;8.662;2023-12-14T03:32:44;9.70;99.90
21169;DHT22;10742;51.816;8.662;2023-12-14T03:36:06;9.70;99.90
21169;DHT22;10742;51.816;8.662;2023-12-14T03:39:28;9.70;99.90
21169;DHT22;10742;51.816;8.662;2023-12-14T03:42:49;9.60;99.90
21169;DHT22;10742;51.816;8.662;2023-12-14T03:46:10;9.60;99.90
21169;DHT22;10742;51.816;8.662;2023-12-14T03:49:37;9.60;99.90
21169;DHT22;10742;51.816;8.662;2023-12-14T03:52:59;9.60;99.90
21169;DHT22;10742;51.816;8.662;2023-12-14T03:56:20;9.60;99.90
21169;DHT22;10742;51.816;8.662;2023-12-14T03:59:41;9.60;99.90
21169;DHT22;10742;51.816;8.662;2023-12-14T04:03:02;9.50;99.90
21169;DHT22;10742;51.816;8.662;2023-12-14T04:06:23;9.50;99.90
21169;DHT22;10742;51.816;8.662;2023-12-14T04:09:45;9.50;99.90
21169;DHT22;10742;51.816;8.662;2023-12-14T04:13:06;9.40;99.90
21169;DHT22;10742;51.816;8.662;2023-12-14T04:16:27;9.40;99.90
21169;DHT22;10742;51.816;8.662;2023-12-14T04:19:48;9.40;99.90
21169;DHT22;10742;51.816;8.662;2023-12-14T04:23:10;9.30;99.90
21169;DHT22;10742;51.816;8.662;2023-12-14T04:26:31;9.30;99.90
21169;DHT22;10742;51.816;8.662;2023-12-14T04:29:53;9.30;99.90
21169;DHT22;10742;51.816;8.662;2023-12-14T04:33:14;9.30;99.90
21169;DHT22;10742;51.816;8.662;2023-12-14T04:36:36;9.30;99.90
21169;DHT22;10742;51.816;8.662;2023-12-14T04:39:57;9.20;99.90
21169;DHT22;10742;51.816;8.662;2023-12-14T04:43:19;9.20;99.90
21169;DHT22;10742;51.816;8.662;2023-12-14T04:46:40;9.20;99.90
21169;DHT22;10742;51.816;8.662;2023-12-14T04:50:02;9.20;99.90
21169;DHT22;10742;51.816;8.662;2023-12-14T04:53:23;9.30;99.90
21169;DHT22;10742;51.816;8.662;2023-12-14T04:56:47;9.30;99.90
21169;DHT22;10742;51.816;8.662;2023-12-14T05:00:09;9.30;99.90
21169;DHT22;10742;51.816;8.662;2023-12-14T05:03:31;9.30;99.90
21169;DHT22;10742;51.816;8.662;2023-12-14T05:06:52;9.30;99.90
21169;DHT22;10742;51.816;8.662;2023-12-14T05:10:13;9.30;99.90
21169;DHT22;10742;51.816;8.662;2023-12-14T05:13:35;9.30;99.90
21169;DHT22;10742;51.816;8.662;2023-12-14T05:16:56;9.30;99.90
21169;DHT22;10742;51.816;8.662;2023-12-14T05:20:17;9.30;99.90
21169;DHT22;10742;51.816;8.662;2023-12-14T05:23:38;9.30;99.90
21169;DHT22;10742;51.816;8.662;2023-12-14T05:26:59;9.30;99.90
21169;DHT22;10742;51.816;8.662;2023-12-14T05:30:20;9.30;99.90
21169;DHT22;10742;51.816;8.662;2023-12-14T05:33:41;9.30;99.90
21169;DHT22;10742;51.816;8.662;2023-12-14T05:37:02;9.20;99.90
21169;DHT22;10742;51.816;8.662;2023-12-14T05:40:23;9.20;99.90
21169;DHT22;10742;51.816;8.662;2023-12-14T05:43:44;9.20;99.90
21169;DHT22;10742;51.816;8.662;2023-12-14T05:47:06;9.20;99.90
21169;DHT22;10742;51.816;8.662;2023-12-14T05:50:27;9.10;99.90
21169;DHT22;10742;51.816;8.662;2023-12-14T05:53:49;9.10;99.90
21169;DHT22;10742;51.816;8.662;2023-12-14T05:57:10;9.10;99.90
21169;DHT22;10742;51.816;8.662;2023-12-14T06:00:35;9.10;99.90
21169;DHT22;10742;51.816;8.662;2023-12-14T06:03:56;9.10;99.90
21169;DHT22;10742;51.816;8.662;2023-12-14T06:07:17;9.10;99.90
21169;DHT22;10742;51.816;8.662;2023-12-14T06:10:38;9.00;99.90
21169;DHT22;10742;51.816;8.662;2023-12-14T06:13:59;9.00;99.90
21169;DHT22;10742;51.816;8.662;2023-12-14T06:17:20;9.00;99.90
21169;DHT22;10742;51.816;8.662;2023-12-14T06:20:41;9.00;99.90
21169;DHT22;10742;51.816;8.662;2023-12-14T06:24:03;9.00;99.90
21169;DHT22;10742;51.816;8.662;2023-12-14T06:27:24;8.90;99.90
21169;DHT22;10742;51.816;8.662;2023-12-14T06:30:47;8.90;99.90
21169;DHT22;10742;51.816;8.662;2023-12-14T06:34:08;8.90;99.90
21169;DHT22;10742;51.816;8.662;2023-12-14T06:37:29;8.90;99.90
21169;DHT22;10742;51.816;8.662;2023-12-14T06:40:50;8.90;99.90
21169;DHT22;10742;51.816;8.662;2023-12-14T06:44:11;9.00;99.90
21169;DHT22;10742;51.816;8.662;2023-12-14T06:47:33;8.90;99.90
21169;DHT22;10742;51.816;8.662;2023-12-14T06:50:54;8.90;99.90
21169;DHT22;10742;51.816;8.662;2023-12-14T06:54:15;8.90;99.90
21169;DHT22;10742;51.816;8.662;2023-12-14T06:57:37;8.80;99.90
21169;DHT22;10742;51.816;8.662;2023-12-14T07:00:58;8.80;99.90
21169;DHT22;10742;51.816;8.662;2023-12-14T07:04:19;8.80;99.90
21169;DHT22;10742;51.816;8.662;2023-12-14T07:07:41;8.80;99.90
21169;DHT22;10742;51.816;8.662;2023-12-14T07:11:02;8.80;99.90
21169;DHT22;10742;51.816;8.662;2023-12-14T07:14:23;8.80;99.90
21169;DHT22;10742;51.816;8.662;2023-12-14T07:17:45;8.70;99.90
21169;DHT22;10742;51.816;8.662;2023-12-14T07:21:07;8.70;99.90
21169;DHT22;10742;51.816;8.662;2023-12-14T07:24:29;8.70;99.90
21169;DHT22;10742;51.816;8.662;2023-12-14T07:27:52;8.60;99.90
21169;DHT22;10742;51.816;8.662;2023-12-14T07:31:13;8.60;99.90
21169;DHT22;10742;51.816;8.662;2023-12-14T07:34:34;8.60;99.90
21169;DHT22;10742;51.816;8.662;2023-12-14T07:37:55;8.60;99.90
21169;DHT22;10742;51.816;8.662;2023-12-14T07:41:16;8.60;99.90
21169;DHT22;10742;51.816;8.662;2023-12-14T07:44:38;8.60;99.90
21169;DHT22;10742;51.816;8.662;2023-12-14T07:48:01;8.60;99.90
21169;DHT22;10742;51.816;8.662;2023-12-14T07:51:22;8.60;99.90
21169;DHT22;10742;51.816;8.662;2023-12-14T07:54:43;8.50;99.90
21169;DHT22;10742;51.816;8.662;2023-12-14T07:58:04;8.60;99.90
21169;DHT22;10742;51.816;8.662;2023-12-14T08:01:26;8.60;99.90
21169;DHT22;10742;51.816;8.662;2023-12-14T08:04:47;8.60;99.90
21169;DHT22;10742;51.816;8.662;2023-12-14T08:08:08;8.60;99.90
21169;DHT22;10742;51.816;8.662;2023-12-14T08:11:29;8.60;99.90
21169;DHT22;10742;51.816;8.662;2023-12-14T08:14:51;8.60;99.90
21169;DHT22;10742;51.816;8.662;2023-12-14T08:18:12;8.60;99.90
21169;DHT22;10742;51.816;8.662;2023-12-14T08:21:34;8.70;99.90
21169;DHT22;10742;51.816;8.662;2023-12-14T08:24:55;8.70;99.90
21169;DHT22;10742;51.816;8.662;2023-12-14T08:28:16;8.70;99.90
21169;DHT22;10742;51.816;8.662;2023-12-14T08:31:37;8.80;99.90
21169;DHT22;10742;51.816;8.662;2023-12-14T08:34:58;8.80;99.90
21169;DHT22;10742;51.816;8.662;2023-12-14T08:38:20;8.70;99.90
21169;DHT22;10742;51.816;8.662;2023-12-14T08:41:41;8.70;99.90
21169;DHT22;10742;51.816;8.662;2023-12-14T08:45:02;8.70;99.90
21169;DHT22;10742;51.816;8.662;2023-12-14T08:48:24;8.70;99.90
21169;DHT22;10742;51.816;8.662;2023-12-14T08:51:45;8.70;99.90
21169;DHT22;10742;51.816;8.662;2023-12-14T08:55:07;8.70;99.90
21169;DHT22;10742;51.816;8.662;2023-12-14T08:58:29;8.70;99.90
21169;DHT22;10742;51.816;8.662;2023-12-14T09:01:50;8.70;99.90
21169;DHT22;10742;51.816;8.662;2023-12-14T09:05:15;8.70;99.90
21169;DHT22;10742;51.816;8.662;2023-12-14T09:08:37;8.70;99.90
21169;DHT22;10742;51.816;8.662;2023-12-14T09:11:58;8.70;99.90
21169;DHT22;10742;51.816;8.662;2023-12-14T09:15:19;8.70;99.90
21169;DHT22;10742;51.816;8.662;2023-12-14T09:18:40;8.60;99.90
21169;DHT22;10742;51.816;8.662;2023-12-14T09:22:01;8.70;99.90
21169;DHT22;10742;51.816;8.662;2023-12-14T09:25:22;8.80;99.90
21169;DHT22;10742;51.816;8.662;2023-12-14T09:28:44;8.80;99.90
21169;DHT22;10742;51.816;8.662;2023-12-14T09:32:08;8.80;99.90
21169;DHT22;10742;51.816;8.662;2023-12-14T09:35:29;8.80;99.90
21169;DHT22;10742;51.816;8.662;2023-12-14T09:38:51;8.90;99.90
21169;DHT22;10742;51.816;8.662;2023-12-14T09:42:16;8.90;99.90
21169;DHT22;10742;51.816;8.662;2023-12-14T09:45:38;8.80;99.90
21169;DHT22;10742;51.816;8.662;2023-12-14T09:49:04;8.80;99.90
21169;DHT22;10742;51.816;8.662;2023-12-14T09:52:26;8.80;99.90
21169;DHT22;10742;51.816;8.662;2023-12-14T09:55:48;8.80;99.90
21169;DHT22;10742;51.816;8.662;2023-12-14T09:59:09;8.80;99.90
21169;DHT22;10742;51.816;8.662;2023-12-14T10:02:30;8.80;99.90
21169;DHT22;10742;51.816;8.662;2023-12-14T10:05:53;8.80;99.90
21169;DHT22;10742;51.816;8.662;2023-12-14T10:09:14;8.90;99.90
21169;DHT22;10742;51.816;8.662;2023-12-14T10:12:53;8.90;99.90
21169;DHT22;10742;51.816;8.662;2023-12-14T10:16:32;8.90;99.90
21169;DHT22;10742;51.816;8.662;2023-12-14T10:19:53;9.00;99.90
21169;DHT22;10742;51.816;8.662;2023-12-14T10:23:14;9.10;99.90
21169;DHT22;10742;51.816;8.662;2023-12-14T10:26:36;9.10;99.90
21169;DHT22;10742;51.816;8.662;2023-12-14T10:29:57;9.10;99.90
21169;DHT22;10742;51.816;8.662;2023-12-14T10:33:18;9.10;99.90
21169;DHT22;10742;51.816;8.662;2023-12-14T10:36:40;9.10;99.90
21169;DHT22;10742;51.816;8.662;2023-12-14T10:40:06;9.10;99.90
21169;DHT22;10742;51.816;8.662;2023-12-14T10:43:28;9.10;99.90
21169;DHT22;10742;51.816;8.662;2023-12-14T10:46:55;9.00;99.90
21169;DHT22;10742;51.816;8.662;2023-12-14T10:50:19;9.10;99.90
21169;DHT22;10742;51.816;8.662;2023-12-14T10:53:40;9.10;99.90
21169;DHT22;10742;51.816;8.662;2023-12-14T10:57:05;9.10;99.90
21169;DHT22;10742;51.816;8.662;2023-12-14T11:00:31;9.10;99.90
21169;DHT22;10742;51.816;8.662;2023-12-14T11:03:56;9.20;99.90
21169;DHT22;10742;51.816;8.662;2023-12-14T11:07:17;9.20;99.90
21169;DHT22;10742;51.816;8.662;2023-12-14T11:10:54;9.20;99.90
21169;DHT22;10742;51.816;8.662;2023-12-14T11:14:19;9.20;99.90
21169;DHT22;10742;51.816;8.662;2023-12-14T11:17:41;9.20;99.90
21169;DHT22;10742;51.816;8.662;2023-12-14T11:21:02;9.20;99.90
21169;DHT22;10742;51.816;8.662;2023-12-14T11:24:24;9.30;99.90
21169;DHT22;10742;51.816;8.662;2023-12-14T11:27:47;9.30;99.90
21169;DHT22;10742;51.816;8.662;2023-12-14T11:31:11;9.30;99.90
21169;DHT22;10742;51.816;8.662;2023-12-14T11:34:33;9.30;99.90
21169;DHT22;10742;51.816;8.662;2023-12-14T11:37:55;9.30;99.90
21169;DHT22;10742;51.816;8.662;2023-12-14T11:41:19;9.30;99.90
21169;DHT22;10742;51.816;8.662;2023-12-14T11:44:41;9.30;99.90
21169;DHT22;10742;51.816;8.662;2023-12-14T11:48:04;9.40;99.90
21169;DHT22;10742;51.816;8.662;2023-12-14T11:51:26;9.40;99.90
21169;DHT22;10742;51.816;8.662;2023-12-14T11:54:48;9.40;99.90
21169;DHT22;10742;51.816;8.662;2023-12-14T11:58:13;9.40;99.90
21169;DHT22;10742;51.816;8.662;2023-12-14T12:01:37;9.40;99.90
21169;DHT22;10742;51.816;8.662;2023-12-14T12:04:59;9.40;99.90
21169;DHT22;10742;51.816;8.662;2023-12-14T12:08:20;9.40;99.90
21169;DHT22;10742;51.816;8.662;2023-12-14T12:11:41;9.40;99.90
21169;DHT22;10742;51.816;8.662;2023-12-14T12:15:04;9.50;99.90
21169;DHT22;10742;51.816;8.662;2023-12-14T12:18:25;9.40;99.90
21169;DHT22;10742;51.816;8.662;2023-12-14T12:21:47;9.50;99.90
21169;DHT22;10742;51.816;8.662;2023-12-14T12:25:09;9.50;99.90
21169;DHT22;10742;51.816;8.662;2023-12-14T12:28:31;9.50;99.90
21169;DHT22;10742;51.816;8.662;2023-12-14T12:31:52;9.60;99.90
21169;DHT22;10742;51.816;8.662;2023-12-14T12:35:14;9.50;99.90
21169;DHT22;10742;51.816;8.662;2023-12-14T12:38:35;9.60;99.90
21169;DHT22;10742;51.816;8.662;2023-12-14T12:42:01;9.60;99.90
21169;DHT22;10742;51.816;8.662;2023-12-14T12:45:23;9.60;99.90
21169;DHT22;10742;51.816;8.662;2023-12-14T12:48:49;9.60;99.90
21169;DHT22;10742;51.816;8.662;2023-12-14T12:52:12;9.60;99.90
21169;DHT22;10742;51.816;8.662;2023-12-14T12:55:33;9.60;99.90
21169;DHT22;10742;51.816;8.662;2023-12-14T12:58:55;9.60;99.90
21169;DHT22;10742;51.816;8.662;2023-12-14T13:02:17;9.70;99.90
21169;DHT22;10742;51.816;8.662;2023-12-14T13:05:39;9.70;99.90
21169;DHT22;10742;51.816;8.662;2023-12-14T13:09:00;9.70;99.90
21169;DHT22;10742;51.816;8.662;2023-12-14T13:12:21;9.80;99.90
21169;DHT22;10742;51.816;8.662;2023-12-14T13:15:42;9.80;99.90
21169;DHT22;10742;51.816;8.662;2023-12-14T13:19:03;9.90;99.90
21169;DHT22;10742;51.816;8.662;2023-12-14T13:22:25;9.90;99.90
21169;DHT22;10742;51.816;8.662;2023-12-14T13:25:51;10.00;99.90
21169;DHT22;10742;51.816;8.662;2023-12-14T13:29:13;10.00;99.90
21169;DHT22;10742;51.816;8.662;2023-12-14T13:32:35;10.00;99.90
21169;DHT22;10742;51.816;8.662;2023-12-14T13:35:56;10.00;99.90
21169;DHT22;10742;51.816;8.662;2023-12-14T13:39:17;10.10;99.90
21169;DHT22;10742;51.816;8.662;2023-12-14T13:42:39;10.10;99.90
21169;DHT22;10742;51.816;8.662;2023-12-14T13:46:04;10.10;99.90
21169;DHT22;10742;51.816;8.662;2023-12-14T13:49:25;10.10;99.90
21169;DHT22;10742;51.816;8.662;2023-12-14T13:52:46;10.10;99.90
21169;DHT22;10742;51.816;8.662;2023-12-14T13:56:08;10.20;99.90
21169;DHT22;10742;51.816;8.662;2023-12-14T13:59:29;10.20;99.90
21169;DHT22;10742;51.816;8.662;2023-12-14T14:02:50;10.20;99.90
21169;DHT22;10742;51.816;8.662;2023-12-14T14:06:11;10.20;99.90
21169;DHT22;10742;51.816;8.662;2023-12-14T14:09:32;10.20;99.90
21169;DHT22;10742;51.816;8.662;2023-12-14T14:12:53;10.20;99.90
21169;DHT22;10742;51.816;8.662;2023-12-14T14:16:15;10.20;99.90
21169;DHT22;10742;51.816;8.662;2023-12-14T14:19:37;10.20;99.90
21169;DHT22;10742;51.816;8.662;2023-12-14T14:23:01;10.20;99.90
21169;DHT22;10742;51.816;8.662;2023-12-14T14:26:23;10.20;99.90
21169;DHT22;10742;51.816;8.662;2023-12-14T14:29:44;10.20;99.90
21169;DHT22;10742;51.816;8.662;2023-12-14T14:33:05;10.20;99.90
21169;DHT22;10742;51.816;8.662;2023-12-14T14:36:27;10.20;99.90
21169;DHT22;10742;51.816;8.662;2023-12-14T14:39:49;10.20;99.90
21169;DHT22;10742;51.816;8.662;2023-12-14T14:43:11;10.20;99.90
21169;DHT22;10742;51.816;8.662;2023-12-14T14:46:32;10.20;99.90
21169;DHT22;10742;51.816;8.662;2023-12-14T14:49:53;10.20;99.90
21169;DHT22;10742;51.816;8.662;2023-12-14T14:53:18;10.10;99.90
21169;DHT22;10742;51.816;8.662;2023-12-14T14:56:40;10.10;99.90
21169;DHT22;10742;51.816;8.662;2023-12-14T15:00:02;10.10;99.90
21169;DHT22;10742;51.816;8.662;2023-12-14T15:03:24;10.10;99.90
21169;DHT22;10742;51.816;8.662;2023-12-14T15:06:45;10.10;99.90
21169;DHT22;10742;51.816;8.662;2023-12-14T15:10:07;10.10;99.90
21169;DHT22;10742;51.816;8.662;2023-12-14T15:13:28;10.10;99.90
21169;DHT22;10742;51.816;8.662;2023-12-14T15:16:50;10.10;99.90
21169;DHT22;10742;51.816;8.662;2023-12-14T15:20:11;10.10;99.90
21169;DHT22;10742;51.816;8.662;2023-12-14T15:23:32;10.10;99.90
21169;DHT22;10742;51.816;8.662;2023-12-14T15:26:53;10.10;99.90
21169;DHT22;10742;51.816;8.662;2023-12-14T15:30:14;10.00;99.90
21169;DHT22;10742;51.816;8.662;2023-12-14T15:33:35;10.00;99.90
21169;DHT22;10742;51.816;8.662;2023-12-14T15:36:57;10.10;99.90
21169;DHT22;10742;51.816;8.662;2023-12-14T15:40:18;10.00;99.90
21169;DHT22;10742;51.816;8.662;2023-12-14T15:43:39;10.00;99.90
21169;DHT22;10742;51.816;8.662;2023-12-14T15:47:00;10.00;99.90
21169;DHT22;10742;51.816;8.662;2023-12-14T15:50:21;10.00;99.90
21169;DHT22;10742;51.816;8.662;2023-12-14T15:53:43;10.00;99.90
21169;DHT22;10742;51.816;8.662;2023-12-14T15:57:05;10.00;99.90
21169;DHT22;10742;51.816;8.662;2023-12-14T16:00:26;10.00;99.90
21169;DHT22;10742;51.816;8.662;2023-12-14T16:03:47;10.00;99.90
21169;DHT22;10742;51.816;8.662;2023-12-14T16:07:08;10.00;99.90
21169;DHT22;10742;51.816;8.662;2023-12-14T16:10:29;10.00;99.90
21169;DHT22;10742;51.816;8.662;2023-12-14T16:13:50;10.00;99.90
21169;DHT22;10742;51.816;8.662;2023-12-14T16:17:13;10.00;99.90
21169;DHT22;10742;51.816;8.662;2023-12-14T16:20:34;9.90;99.90
21169;DHT22;10742;51.816;8.662;2023-12-14T16:23:56;9.90;99.90
21169;DHT22;10742;51.816;8.662;2023-12-14T16:27:17;9.90;99.90
21169;DHT22;10742;51.816;8.662;2023-12-14T16:30:39;9.90;99.90
21169;DHT22;10742;51.816;8.662;2023-12-14T16:34:00;9.90;99.90
21169;DHT22;10742;51.816;8.662;2023-12-14T16:37:21;9.90;99.90
21169;DHT22;10742;51.816;8.662;2023-12-14T16:40:42;9.90;99.90
21169;DHT22;10742;51.816;8.662;2023-12-14T16:44:04;9.90;99.90
21169;DHT22;10742;51.816;8.662;2023-12-14T16:47:26;9.90;99.90
21169;DHT22;10742;51.816;8.662;2023-12-14T16:50:47;9.90;99.90
21169;DHT22;10742;51.816;8.662;2023-12-14T16:54:14;9.90;99.90
21169;DHT22;10742;51.816;8.662;2023-12-14T16:57:35;9.90;99.90
21169;DHT22;10742;51.816;8.662;2023-12-14T17:00:56;9.90;99.90
21169;DHT22;10742;51.816;8.662;2023-12-14T17:04:17;9.90;99.90
21169;DHT22;10742;51.816;8.662;2023-12-14T17:07:40;9.80;99.90
21169;DHT22;10742;51.816;8.662;2023-12-14T17:11:01;9.90;99.90
21169;DHT22;10742;51.816;8.662;2023-12-14T17:14:22;9.80;99.90
21169;DHT22;10742;51.816;8.662;2023-12-14T17:17:44;9.90;99.90
21169;DHT22;10742;51.816;8.662;2023-12-14T17:21:16;9.80;99.90
21169;DHT22;10742;51.816;8.662;2023-12-14T17:24:37;9.80;99.90
21169;DHT22;10742;51.816;8.662;2023-12-14T17:27:58;9.80;99.90
21169;DHT22;10742;51.816;8.662;2023-12-14T17:31:21;9.80;99.90
21169;DHT22;10742;51.816;8.662;2023-12-14T17:34:42;9.80;99.90
21169;DHT22;10742;51.816;8.662;2023-12-14T17:38:03;9.90;99.90
21169;DHT22;10742;51.816;8.662;2023-12-14T17:41:24;9.80;99.90
21169;DHT22;10742;51.816;8.662;2023-12-14T17:44:45;9.80;99.90
21169;DHT22;10742;51.816;8.662;2023-12-14T17:48:06;9.80;99.90
21169;DHT22;10742;51.816;8.662;2023-12-14T17:51:28;9.80;99.90
21169;DHT22;10742;51.816;8.662;2023-12-14T17:54:50;9.80;99.90
21169;DHT22;10742;51.816;8.662;2023-12-14T17:58:12;9.70;99.90
21169;DHT22;10742;51.816;8.662;2023-12-14T18:01:33;9.70;99.90
21169;DHT22;10742;51.816;8.662;2023-12-14T18:04:54;9.80;99.90
21169;DHT22;10742;51.816;8.662;2023-12-14T18:08:15;9.80;99.90
21169;DHT22;10742;51.816;8.662;2023-12-14T18:11:36;9.80;99.90
21169;DHT22;10742;51.816;8.662;2023-12-14T18:14:57;9.80;99.90
21169;DHT22;10742;51.816;8.662;2023-12-14T18:18:19;9.80;99.90
21169;DHT22;10742;51.816;8.662;2023-12-14T18:21:40;9.80;99.90
21169;DHT22;10742;51.816;8.662;2023-12-14T18:25:01;9.80;99.90
21169;DHT22;10742;51.816;8.662;2023-12-14T18:28:23;9.80;99.90
21169;DHT22;10742;51.816;8.662;2023-12-14T18:31:44;9.80;99.90
21169;DHT22;10742;51.816;8.662;2023-12-14T18:35:05;9.80;99.90
21169;DHT22;10742;51.816;8.662;2023-12-14T18:38:27;9.80;99.90
21169;DHT22;10742;51.816;8.662;2023-12-14T18:41:51;9.80;99.90
21169;DHT22;10742;51.816;8.662;2023-12-14T18:45:12;9.80;99.90
21169;DHT22;10742;51.816;8.662;2023-12-14T18:48:33;9.70;99.90
21169;DHT22;10742;51.816;8.662;2023-12-14T18:51:58;9.80;99.90
21169;DHT22;10742;51.816;8.662;2023-12-14T18:55:20;9.70;99.90
21169;DHT22;10742;51.816;8.662;2023-12-14T18:58:41;9.80;99.90
21169;DHT22;10742;51.816;8.662;2023-12-14T19:02:04;9.80;99.90
21169;DHT22;10742;51.816;8.662;2023-12-14T19:05:25;9.70;99.90
21169;DHT22;10742;51.816;8.662;2023-12-14T19:08:47;9.70;99.90
21169;DHT22;10742;51.816;8.662;2023-12-14T19:12:12;9.70;99.90
21169;DHT22;10742;51.816;8.662;2023-12-14T19:15:33;9.70;99.90
21169;DHT22;10742;51.816;8.662;2023-12-14T19:18:54;9.70;99.90
21169;DHT22;10742;51.816;8.662;2023-12-14T19:22:15;9.70;99.90
21169;DHT22;10742;51.816;8.662;2023-12-14T19:25:39;9.70;99.90
21169;DHT22;10742;51.816;8.662;2023-12-14T19:29:00;9.70;99.90
21169;DHT22;10742;51.816;8.662;2023-12-14T19:32:22;9.70;99.90
21169;DHT22;10742;51.816;8.662;2023-12-14T19:35:44;9.70;99.90
21169;DHT22;10742;51.816;8.662;2023-12-14T19:39:06;9.70;99.90
21169;DHT22;10742;51.816;8.662;2023-12-14T19:42:27;9.70;99.90
21169;DHT22;10742;51.816;8.662;2023-12-14T19:45:49;9.70;99.90
21169;DHT22;10742;51.816;8.662;2023-12-14T19:49:10;9.70;99.90
21169;DHT22;10742;51.816;8.662;2023-12-14T19:52:31;9.70;99.90
21169;DHT22;10742;51.816;8.662;2023-12-14T19:55:53;9.70;99.90
21169;DHT22;10742;51.816;8.662;2023-12-14T19:59:14;9.70;99.90
21169;DHT22;10742;51.816;8.662;2023-12-14T20:02:35;9.70;99.90
21169;DHT22;10742;51.816;8.662;2023-12-14T20:05:56;9.60;99.90
21169;DHT22;10742;51.816;8.662;2023-12-14T20:09:17;9.70;99.90
21169;DHT22;10742;51.816;8.662;2023-12-14T20:12:38;9.60;99.90
21169;DHT22;10742;51.816;8.662;2023-12-14T20:16:00;9.70;99.90
21169;DHT22;10742;51.816;8.662;2023-12-14T20:19:21;9.70;99.90
21169;DHT22;10742;51.816;8.662;2023-12-14T20:22:43;9.70;99.90
21169;DHT22;10742;51.816;8.662;2023-12-14T20:26:04;9.70;99.90
21169;DHT22;10742;51.816;8.662;2023-12-14T20:29:26;9.60;99.90
21169;DHT22;10742;51.816;8.662;2023-12-14T20:32:50;9.60;99.90
21169;DHT22;10742;51.816;8.662;2023-12-14T20:36:12;9.60;99.90
21169;DHT22;10742;51.816;8.662;2023-12-14T20:39:33;9.60;99.90
21169;DHT22;10742;51.816;8.662;2023-12-14T20:42:54;9.60;99.90
21169;DHT22;10742;51.816;8.662;2023-12-14T20:46:16;9.60;99.90
21169;DHT22;10742;51.816;8.662;2023-12-14T20:49:37;9.60;99.90
21169;DHT22;10742;51.816;8.662;2023-12-14T20:52:58;9.60;99.90
21169;DHT22;10742;51.816;8.662;2023-12-14T20:56:19;9.60;99.90
21169;DHT22;10742;51.816;8.662;2023-12-14T20:59:40;9.60;99.90
21169;DHT22;10742;51.816;8.662;2023-12-14T21:03:01;9.60;99.90
21169;DHT22;10742;51.816;8.662;2023-12-14T21:06:22;9.60;99.90
21169;DHT22;10742;51.816;8.662;2023-12-14T21:09:44;9.60;99.90
21169;DHT22;10742;51.816;8.662;2023-12-14T21:13:06;9.60;99.90
21169;DHT22;10742;51.816;8.662;2023-12-14T21:16:27;9.60;99.90
21169;DHT22;10742;51.816;8.662;2023-12-14T21:19:52;9.60;99.90
21169;DHT22;10742;51.816;8.662;2023-12-14T21:23:14;9.60;99.90
21169;DHT22;10742;51.816;8.662;2023-12-14T21:26:35;9.50;99.90
21169;DHT22;10742;51.816;8.662;2023-12-14T21:29:58;9.60;99.90